createdAt,value
2022-11-05T00:00:18.074Z,11.23
2022-11-05T00:03:04.239Z,15.10
2022-11-05T00:05:50.575Z,15.70
2022-11-05T00:08:36.519Z,12.38
2022-11-05T00:11:04.635Z,16.48
2022-11-05T00:13:50.425Z,13.40
2022-11-05T00:16:36.163Z,12.48
2022-11-05T00:19:10.301Z,16.83
2022-11-05T00:21:57.562Z,11.73
2022-11-05T00:24:43.566Z,15.27
2022-11-05T00:27:11.395Z,13.45
2022-11-05T00:29:38.639Z,17.13
2022-11-05T00:32:05.950Z,12.80
2022-11-05T00:34:33.164Z,10.93
2022-11-05T00:37:00.448Z,10.00
2022-11-05T00:39:27.728Z,17.02
2022-11-05T00:42:13.758Z,13.00
2022-11-05T00:44:59.365Z,13.00
2022-11-05T00:47:45.182Z,11.52
2022-11-05T00:50:12.675Z,11.35
2022-11-05T00:52:58.343Z,11.13
2022-11-05T00:55:34.588Z,11.25
2022-11-05T00:58:03.530Z,9.93
2022-11-05T01:00:32.288Z,10.90
2022-11-05T01:03:01.830Z,11.70
2022-11-05T01:05:30.514Z,10.68
2022-11-05T01:07:58.062Z,10.48
2022-11-05T01:10:25.980Z,8.90
2022-11-05T01:12:53.787Z,12.60
2022-11-05T01:15:21.421Z,11.30
2022-11-05T01:17:48.811Z,9.88
2022-11-05T01:20:16.704Z,15.82
2022-11-05T01:22:43.925Z,11.10
2022-11-05T01:25:11.252Z,10.20
2022-11-05T01:27:38.671Z,11.50
2022-11-05T01:30:08.726Z,8.82
2022-11-05T01:32:37.288Z,12.88
2022-11-05T01:35:10.633Z,9.88
2022-11-05T01:37:37.982Z,9.63
2022-11-05T01:40:06.849Z,9.65
2022-11-05T01:42:34.914Z,10.45
2022-11-05T01:45:17.037Z,9.00
2022-11-05T01:47:51.891Z,9.18
2022-11-05T01:50:31.152Z,12.63
2022-11-05T01:53:21.848Z,12.43
2022-11-05T01:56:07.117Z,9.63
2022-11-05T01:58:41.600Z,9.57
2022-11-05T02:01:09.302Z,10.80
2022-11-05T02:03:36.816Z,8.55
2022-11-05T02:06:04.866Z,7.55
2022-11-05T02:08:51.315Z,12.20
2022-11-05T02:11:20.025Z,7.40
2022-11-05T02:13:48.718Z,11.38
2022-11-05T02:16:29.026Z,9.02
2022-11-05T02:19:11.685Z,8.68
2022-11-05T02:22:09.795Z,7.03
2022-11-05T02:24:36.980Z,11.20
2022-11-05T02:27:13.244Z,8.82
2022-11-05T02:30:09.913Z,8.77
2022-11-05T02:32:47.216Z,9.40
2022-11-05T02:35:50.662Z,10.88
2022-11-05T02:38:23.806Z,7.93
2022-11-05T02:41:05.948Z,10.13
2022-11-05T02:46:50.981Z,8.57
2022-11-05T02:49:33.283Z,12.38
2022-11-05T02:52:09.828Z,8.38
2022-11-05T02:54:45.940Z,9.10
2022-11-05T02:57:13.185Z,7.97
2022-11-05T02:59:40.497Z,8.18
2022-11-05T03:02:08.155Z,11.02
2022-11-05T03:04:35.816Z,8.63
2022-11-05T03:07:15.031Z,10.82
2022-11-05T03:09:51.116Z,11.40
2022-11-05T03:12:24.174Z,10.23
2022-11-05T03:15:38.388Z,9.43
2022-11-05T03:18:20.427Z,8.68
2022-11-05T03:20:54.825Z,10.00
2022-11-05T03:23:48.939Z,9.73
2022-11-05T03:26:31.963Z,10.55
2022-11-05T03:29:06.918Z,10.18
2022-11-05T03:31:37.160Z,8.75
2022-11-05T03:34:08.019Z,10.15
2022-11-05T03:36:41.364Z,11.07
2022-11-05T03:39:14.730Z,8.60
2022-11-05T03:41:46.793Z,10.70
2022-11-05T03:44:18.077Z,9.35
2022-11-05T03:46:49.516Z,10.97
2022-11-05T03:49:22.214Z,10.60
2022-11-05T03:52:12.492Z,9.70
2022-11-05T03:54:39.957Z,10.38
2022-11-05T03:57:20.666Z,12.50
2022-11-05T03:59:50.296Z,10.05
2022-11-05T04:02:20.082Z,9.63
2022-11-05T04:04:47.582Z,10.80
2022-11-05T04:07:33.676Z,8.32
2022-11-05T04:10:19.302Z,8.57
2022-11-05T04:13:05.151Z,15.70
2022-11-05T04:15:50.996Z,12.73
2022-11-05T04:18:18.260Z,11.77
2022-11-05T04:21:03.942Z,13.73
2022-11-05T04:23:49.478Z,15.05
2022-11-05T04:26:16.752Z,12.70
2022-11-05T04:29:07.736Z,12.88
2022-11-05T04:31:35.294Z,13.07
2022-11-05T04:34:02.609Z,13.35
2022-11-05T04:36:30.164Z,13.52
2022-11-05T04:38:57.546Z,16.95
2022-11-05T04:41:24.806Z,13.75
2022-11-05T04:43:52.438Z,15.02
2022-11-05T04:46:19.790Z,13.70
2022-11-05T04:48:47.013Z,13.63
2022-11-05T04:51:14.328Z,14.95
2022-11-05T04:53:41.611Z,14.65
2022-11-05T04:56:10.599Z,14.45
2022-11-05T04:58:44.118Z,14.13
2022-11-05T05:01:16.758Z,14.73
2022-11-05T05:03:44.405Z,13.57
2022-11-05T05:06:11.785Z,13.82
2022-11-05T05:08:39.034Z,12.15
2022-11-05T05:11:09.372Z,14.68
2022-11-05T05:13:36.850Z,14.15
2022-11-05T05:16:24.376Z,13.25
2022-11-05T05:18:52.163Z,15.95
2022-11-05T05:21:40.526Z,14.02
2022-11-05T05:24:13.565Z,15.70
2022-11-05T05:26:46.663Z,13.18
2022-11-05T05:29:14.312Z,13.93
2022-11-05T05:31:42.311Z,16.10
2022-11-05T05:34:12.566Z,16.42
2022-11-05T05:36:39.949Z,17.30
2022-11-05T05:39:08.436Z,17.52
2022-11-05T05:41:35.690Z,19.80
2022-11-05T05:44:05.442Z,17.35
2022-11-05T05:46:32.982Z,18.67
2022-11-05T05:49:00.394Z,20.38
2022-11-05T05:51:27.662Z,22.08
2022-11-05T05:53:55.701Z,21.05
2022-11-05T05:56:22.930Z,16.67
2022-11-05T05:58:50.194Z,17.38
2022-11-05T06:01:19.563Z,17.20
2022-11-05T06:03:47.673Z,16.58
2022-11-05T06:06:16.273Z,15.10
2022-11-05T06:08:43.518Z,18.13
2022-11-05T06:11:11.081Z,20.70
2022-11-05T06:13:38.715Z,17.90
2022-11-05T06:16:10.067Z,19.40
2022-11-05T06:18:37.743Z,15.57
2022-11-05T06:21:10.582Z,19.80
2022-11-05T06:23:39.674Z,20.50
2022-11-05T06:26:09.881Z,20.63
2022-11-05T06:28:37.220Z,19.58
2022-11-05T06:31:04.899Z,18.92
2022-11-05T06:33:32.215Z,22.25
2022-11-05T06:36:01.078Z,20.02
2022-11-05T06:38:31.836Z,21.25
2022-11-05T06:41:00.479Z,21.02
2022-11-05T06:43:29.548Z,20.52
2022-11-05T06:45:58.086Z,27.38
2022-11-05T06:48:25.664Z,23.23
2022-11-05T06:50:52.887Z,19.23
2022-11-05T06:53:20.163Z,24.58
2022-11-05T06:55:50.565Z,29.35
2022-11-05T06:58:18.064Z,39.42
2022-11-05T07:00:45.737Z,37.63
2022-11-05T07:03:13.985Z,30.50
2022-11-05T07:05:47.085Z,43.83
2022-11-05T07:08:14.664Z,30.92
2022-11-05T07:10:42.213Z,30.85
2022-11-05T07:13:09.567Z,32.20
2022-11-05T07:15:37.977Z,28.92
2022-11-05T07:18:07.692Z,29.95
2022-11-05T07:20:35.713Z,27.95
2022-11-05T07:23:06.212Z,29.13
2022-11-05T07:25:34.147Z,29.98
2022-11-05T07:28:02.210Z,30.45
2022-11-05T07:30:30.165Z,29.77
2022-11-05T07:32:57.640Z,31.25
2022-11-05T07:35:25.312Z,35.33
2022-11-05T07:37:56.506Z,30.15
2022-11-05T07:40:25.686Z,29.70
2022-11-05T07:42:55.585Z,31.45
2022-11-05T07:45:23.676Z,28.80
2022-11-05T07:48:03.081Z,26.05
2022-11-05T07:50:32.647Z,25.83
2022-11-05T07:53:07.262Z,26.88
2022-11-05T07:55:34.909Z,29.30
2022-11-05T07:58:02.581Z,28.52
2022-11-05T08:00:30.430Z,27.67
2022-11-05T08:03:08.851Z,26.30
2022-11-05T08:05:38.885Z,24.38
2022-11-05T08:08:08.192Z,21.45
2022-11-05T08:10:36.329Z,24.55
2022-11-05T08:13:03.731Z,26.60
2022-11-05T08:15:31.411Z,27.17
2022-11-05T08:18:00.709Z,24.73
2022-11-05T08:20:28.902Z,25.15
2022-11-05T08:22:57.022Z,25.60
2022-11-05T08:25:24.250Z,33.20
2022-11-05T08:28:06.166Z,27.27
2022-11-05T08:30:33.878Z,23.17
2022-11-05T08:33:03.737Z,25.60
2022-11-05T08:35:31.387Z,22.48
2022-11-05T08:38:02.743Z,20.25
2022-11-05T08:40:32.235Z,21.80
2022-11-05T08:43:01.315Z,20.77
2022-11-05T08:45:29.192Z,22.55
2022-11-05T08:48:04.923Z,21.67
2022-11-05T08:50:33.061Z,15.48
2022-11-05T08:53:00.410Z,20.05
2022-11-05T08:55:28.154Z,19.05
2022-11-05T08:58:07.650Z,19.83
2022-11-05T09:00:37.625Z,19.80
2022-11-05T09:03:08.307Z,24.00
2022-11-05T09:05:38.381Z,21.48
2022-11-05T09:08:13.982Z,21.02
2022-11-05T09:10:42.452Z,22.83
2022-11-05T09:13:16.514Z,26.80
2022-11-05T09:15:50.419Z,26.45
2022-11-05T09:18:18.950Z,23.88
2022-11-05T09:20:46.861Z,23.88
2022-11-05T09:23:15.346Z,25.00
2022-11-05T09:25:42.955Z,22.27
2022-11-05T09:28:22.186Z,29.55
2022-11-05T09:30:51.533Z,25.63
2022-11-05T09:33:23.122Z,30.15
2022-11-05T09:35:50.576Z,26.58
2022-11-05T09:38:18.415Z,27.13
2022-11-05T09:41:04.191Z,26.45
2022-11-05T09:43:39.076Z,25.42
2022-11-05T09:46:21.474Z,26.35
2022-11-05T09:49:05.516Z,25.15
2022-11-05T09:51:33.421Z,24.23
2022-11-05T09:54:02.962Z,22.80
2022-11-05T09:56:34.567Z,23.77
2022-11-05T09:59:13.625Z,21.67
2022-11-05T10:01:42.721Z,25.25
2022-11-05T10:04:15.533Z,24.77
2022-11-05T10:07:04.426Z,25.85
2022-11-05T10:09:40.304Z,26.15
2022-11-05T10:12:30.359Z,24.20
2022-11-05T10:15:18.275Z,20.95
2022-11-05T10:17:50.036Z,22.17
2022-11-05T10:20:34.163Z,22.52
2022-11-05T10:23:10.384Z,18.50
2022-11-05T10:25:41.408Z,23.70
2022-11-05T10:28:14.510Z,26.17
2022-11-05T10:30:42.601Z,22.83
2022-11-05T10:33:14.080Z,22.23
2022-11-05T10:35:49.823Z,19.42
2022-11-05T10:38:17.488Z,19.23
2022-11-05T10:41:22.587Z,21.23
2022-11-05T10:43:54.118Z,20.20
2022-11-05T10:46:39.266Z,17.80
2022-11-05T10:49:52.493Z,18.42
2022-11-05T10:52:24.120Z,23.65
2022-11-05T10:54:55.116Z,24.05
2022-11-05T10:57:33.294Z,21.70
2022-11-05T11:00:16.059Z,21.77
2022-11-05T11:02:46.921Z,20.58
2022-11-05T11:05:31.681Z,21.75
2022-11-05T11:08:10.266Z,21.35
2022-11-05T11:10:58.979Z,22.35
2022-11-05T11:13:49.259Z,21.45
2022-11-05T11:16:24.125Z,22.13
2022-11-05T11:18:56.992Z,21.88
2022-11-05T11:21:24.832Z,22.50
2022-11-05T11:23:57.868Z,23.48
2022-11-05T11:26:29.238Z,22.98
2022-11-05T11:29:05.601Z,23.52
2022-11-05T11:31:37.559Z,19.80
2022-11-05T11:34:11.136Z,19.13
2022-11-05T11:36:47.913Z,21.63
2022-11-05T11:39:22.510Z,17.48
2022-11-05T11:41:57.759Z,19.08
2022-11-05T11:44:32.888Z,17.08
2022-11-05T11:47:10.448Z,19.38
2022-11-05T11:49:55.309Z,17.77
2022-11-05T11:52:31.519Z,18.00
2022-11-05T11:55:21.792Z,18.70
2022-11-05T11:57:50.827Z,20.55
2022-11-05T12:00:20.186Z,19.00
2022-11-05T12:03:15.066Z,19.92
2022-11-05T12:06:12.980Z,19.95
2022-11-05T12:08:44.988Z,19.40
2022-11-05T12:11:25.708Z,17.65
2022-11-05T12:14:04.561Z,18.63
2022-11-05T12:16:34.910Z,19.98
2022-11-05T12:19:02.199Z,19.45
2022-11-05T12:21:58.830Z,21.60
2022-11-05T12:24:49.051Z,21.33
2022-11-05T12:28:03.933Z,21.80
2022-11-05T12:30:43.169Z,16.70
2022-11-05T12:33:35.304Z,16.48
2022-11-05T12:39:13.670Z,19.63
2022-11-05T12:42:01.329Z,20.10
2022-11-05T12:44:53.270Z,16.55
2022-11-05T12:47:35.743Z,20.75
2022-11-05T12:50:29.610Z,17.67
2022-11-05T12:52:56.868Z,20.15
2022-11-05T12:55:27.305Z,16.45
2022-11-05T12:57:59.266Z,20.55
2022-11-05T13:03:28.166Z,16.55
2022-11-05T13:06:24.295Z,20.63
2022-11-05T13:09:17.807Z,17.15
2022-11-05T13:11:53.723Z,16.33
2022-11-05T13:14:59.588Z,18.23
2022-11-05T13:17:53.378Z,20.75
2022-11-05T13:20:24.449Z,19.15
2022-11-05T13:23:30.125Z,19.77
2022-11-05T13:26:07.313Z,20.02
2022-11-05T13:28:51.396Z,17.70
2022-11-05T13:31:32.738Z,16.70
2022-11-05T13:34:05.274Z,17.15
2022-11-05T13:37:12.890Z,16.45
2022-11-05T13:39:48.029Z,14.02
2022-11-05T13:42:33.689Z,16.13
2022-11-05T13:45:13.652Z,18.98
2022-11-05T13:48:10.286Z,19.40
2022-11-05T13:50:51.755Z,18.75
2022-11-05T13:53:42.730Z,17.58
2022-11-05T13:56:32.532Z,15.63
2022-11-05T13:59:06.188Z,13.88
2022-11-05T14:01:50.500Z,16.73
2022-11-05T14:04:36.007Z,13.20
2022-11-05T14:07:15.396Z,13.02
2022-11-05T14:09:44.236Z,12.40
2022-11-05T14:12:34.958Z,12.55
2022-11-05T14:15:17.738Z,12.15
2022-11-05T14:17:54.811Z,12.00
2022-11-05T14:20:27.125Z,12.10
2022-11-05T14:23:17.554Z,13.75
2022-11-05T14:25:45.319Z,12.88
2022-11-05T14:28:50.209Z,16.02
2022-11-05T14:31:20.638Z,12.27
2022-11-05T14:34:02.362Z,15.50
2022-11-05T14:36:33.858Z,14.30
2022-11-05T14:39:13.527Z,16.52
2022-11-05T14:42:01.966Z,15.15
2022-11-05T14:44:33.079Z,15.55
2022-11-05T14:47:04.698Z,18.60
2022-11-05T14:49:40.220Z,14.40
2022-11-05T14:52:11.284Z,13.98
2022-11-05T14:55:00.272Z,14.52
2022-11-05T14:57:42.621Z,18.67
2022-11-05T15:00:29.065Z,15.80
2022-11-05T15:02:58.138Z,23.42
2022-11-05T15:05:33.419Z,17.45
2022-11-05T15:08:24.881Z,17.92
2022-11-05T15:10:56.359Z,21.53
2022-11-05T15:13:51.095Z,23.35
2022-11-05T15:16:25.966Z,20.90
2022-11-05T15:18:56.013Z,14.13
2022-11-05T15:21:25.580Z,16.85
2022-11-05T15:23:56.825Z,15.15
2022-11-05T15:26:46.488Z,16.95
2022-11-05T15:29:22.256Z,17.45
2022-11-05T15:31:50.387Z,21.02
2022-11-05T15:34:33.164Z,19.23
2022-11-05T15:37:11.287Z,17.83
2022-11-05T15:39:40.694Z,16.13
2022-11-05T15:42:19.186Z,15.73
2022-11-05T15:44:48.664Z,17.08
2022-11-05T15:47:23.103Z,14.80
2022-11-05T15:50:01.484Z,15.95
2022-11-05T15:52:36.072Z,18.50
2022-11-05T15:55:26.318Z,18.35
2022-11-05T15:58:00.099Z,17.83
2022-11-05T16:00:30.098Z,16.58
2022-11-05T16:03:07.227Z,19.73
2022-11-05T16:05:41.044Z,17.85
2022-11-05T16:08:20.075Z,24.23
2022-11-05T16:10:51.867Z,20.67
2022-11-05T16:13:22.147Z,22.38
2022-11-05T16:15:58.764Z,20.85
2022-11-05T16:18:35.158Z,18.23
2022-11-05T16:21:13.259Z,19.23
2022-11-05T16:23:43.791Z,20.48
2022-11-05T16:27:01.804Z,21.08
2022-11-05T16:29:35.505Z,19.13
2022-11-05T16:32:26.905Z,19.25
2022-11-05T16:35:05.711Z,23.13
2022-11-05T16:37:41.089Z,18.70
2022-11-05T16:40:18.142Z,17.27
2022-11-05T16:42:51.374Z,19.90
2022-11-05T16:45:24.053Z,20.33
2022-11-05T16:47:52.060Z,23.30
2022-11-05T16:50:30.230Z,26.92
2022-11-05T16:52:57.573Z,18.70
2022-11-05T16:55:24.945Z,21.20
2022-11-05T16:57:54.678Z,19.98
2022-11-05T17:00:23.196Z,20.02
2022-11-05T17:02:51.212Z,19.55
2022-11-05T17:05:22.954Z,20.67
2022-11-05T17:07:50.918Z,21.25
2022-11-05T17:10:19.833Z,19.52
2022-11-05T17:12:48.403Z,20.30
2022-11-05T17:15:25.306Z,21.67
2022-11-05T17:17:54.707Z,22.92
2022-11-05T17:20:40.441Z,23.30
2022-11-05T17:23:16.380Z,22.13
2022-11-05T17:25:47.061Z,26.45
2022-11-05T17:28:16.648Z,28.30
2022-11-05T17:30:51.692Z,26.98
2022-11-05T17:33:21.972Z,22.77
2022-11-05T17:35:50.061Z,24.33
2022-11-05T17:38:18.717Z,21.85
2022-11-05T17:40:46.777Z,21.92
2022-11-05T17:43:15.725Z,18.67
2022-11-05T17:45:46.159Z,21.92
2022-11-05T17:48:14.572Z,23.17
2022-11-05T17:50:43.844Z,22.02
2022-11-05T17:53:15.818Z,23.60
2022-11-05T17:55:45.424Z,19.83
2022-11-05T17:58:13.255Z,21.95
2022-11-05T18:00:41.899Z,19.33
2022-11-05T18:03:10.788Z,22.02
2022-11-05T18:05:40.065Z,20.40
2022-11-05T18:08:08.610Z,18.77
2022-11-05T18:10:40.730Z,23.60
2022-11-05T18:13:08.207Z,22.55
2022-11-05T18:15:38.113Z,20.52
2022-11-05T18:18:05.524Z,18.00
2022-11-05T18:20:33.292Z,21.08
2022-11-05T18:23:00.824Z,20.55
2022-11-05T18:25:28.423Z,16.73
2022-11-05T18:27:56.240Z,22.75
2022-11-05T18:30:23.703Z,22.08
2022-11-05T18:32:52.705Z,23.02
2022-11-05T18:35:20.937Z,23.90
2022-11-05T18:37:48.260Z,17.70
2022-11-05T18:40:15.853Z,18.75
2022-11-05T18:42:43.295Z,16.88
2022-11-05T18:45:11.439Z,17.30
2022-11-05T18:47:39.029Z,19.00
2022-11-05T18:50:10.652Z,16.85
2022-11-05T18:52:38.032Z,19.05
2022-11-05T18:55:06.065Z,20.73
2022-11-05T18:57:34.657Z,16.33
2022-11-05T19:00:02.770Z,15.98
2022-11-05T19:02:30.322Z,17.17
2022-11-05T19:05:27.261Z,15.55
2022-11-05T19:07:45.207Z,15.25
2022-11-05T19:10:12.997Z,15.35
2022-11-05T19:12:40.977Z,19.15
2022-11-05T19:15:09.071Z,15.23
2022-11-05T19:17:37.171Z,17.77
2022-11-05T19:20:07.932Z,18.50
2022-11-05T19:22:35.694Z,17.95
2022-11-05T19:25:05.305Z,17.35
2022-11-05T19:27:34.873Z,15.48
2022-11-05T19:30:04.762Z,14.10
2022-11-05T19:32:32.704Z,15.57
2022-11-05T19:35:00.801Z,15.65
2022-11-05T19:37:28.355Z,14.95
2022-11-05T19:39:56.071Z,14.57
2022-11-05T19:42:24.230Z,14.50
2022-11-05T19:44:53.712Z,16.10
2022-11-05T19:47:21.587Z,18.67
2022-11-05T19:49:49.186Z,16.38
2022-11-05T19:52:16.967Z,17.23
2022-11-05T19:54:46.348Z,17.08
2022-11-05T19:57:13.998Z,15.30
2022-11-05T19:59:41.564Z,19.80
2022-11-05T20:02:15.797Z,16.60
2022-11-05T20:04:44.947Z,22.80
2022-11-05T20:07:12.777Z,23.38
2022-11-05T20:09:40.514Z,22.65
2022-11-05T20:12:08.081Z,21.85
2022-11-05T20:14:38.287Z,18.90
2022-11-05T20:17:05.762Z,23.13
2022-11-05T20:19:35.622Z,17.88
2022-11-05T20:22:03.344Z,21.00
2022-11-05T20:24:33.651Z,23.17
2022-11-05T20:27:02.711Z,17.05
2022-11-05T20:29:35.377Z,17.95
2022-11-05T20:32:04.959Z,21.00
2022-11-05T20:34:34.304Z,19.77
2022-11-05T20:37:04.542Z,23.17
2022-11-05T20:39:33.240Z,21.25
2022-11-05T20:42:01.103Z,20.40
2022-11-05T20:44:28.575Z,20.20
2022-11-05T20:46:56.469Z,17.33
2022-11-05T20:49:25.617Z,21.60
2022-11-05T20:51:53.828Z,20.98
2022-11-05T20:54:22.118Z,25.88
2022-11-05T20:56:49.910Z,23.40
2022-11-05T20:59:17.374Z,21.10
2022-11-05T21:01:45.081Z,21.25
2022-11-05T21:04:13.725Z,28.27
2022-11-05T21:06:41.026Z,22.55
2022-11-05T21:09:08.406Z,18.67
2022-11-05T21:11:54.461Z,21.45
2022-11-05T21:14:21.955Z,23.65
2022-11-05T21:16:49.380Z,22.60
2022-11-05T21:19:16.655Z,22.73
2022-11-05T21:21:44.253Z,19.90
2022-11-05T21:24:11.707Z,22.20
2022-11-05T21:26:39.729Z,24.13
2022-11-05T21:29:08.195Z,24.25
2022-11-05T21:31:37.975Z,23.85
2022-11-05T21:34:05.428Z,24.10
2022-11-05T21:36:33.055Z,29.75
2022-11-05T21:39:00.447Z,25.45
2022-11-05T21:41:27.984Z,27.35
2022-11-05T21:43:55.550Z,26.48
2022-11-05T21:46:23.849Z,26.90
2022-11-05T21:48:51.108Z,27.00
2022-11-05T21:51:37.024Z,25.33
2022-11-05T21:54:22.964Z,31.55
2022-11-05T21:57:10.956Z,26.52
2022-11-05T21:59:55.442Z,28.35
2022-11-05T22:02:24.626Z,27.45
2022-11-05T22:04:53.878Z,27.75
2022-11-05T22:07:24.811Z,29.55
2022-11-05T22:09:52.342Z,26.98
2022-11-05T22:12:19.814Z,34.83
2022-11-05T22:14:47.362Z,28.08
2022-11-05T22:17:15.209Z,31.60
2022-11-05T22:19:42.943Z,28.17
2022-11-05T22:22:10.696Z,25.30
2022-11-05T22:24:38.544Z,29.88
2022-11-05T22:27:14.662Z,30.00
2022-11-05T22:29:42.532Z,28.10
2022-11-05T22:32:11.141Z,28.67
2022-11-05T22:34:38.792Z,28.67
2022-11-05T22:37:06.173Z,40.30
2022-11-05T22:39:33.564Z,43.35
2022-11-05T22:42:04.323Z,27.60
2022-11-05T22:44:35.685Z,31.27
2022-11-05T22:47:03.036Z,28.85
2022-11-05T22:49:30.252Z,29.50
2022-11-05T22:51:57.549Z,29.65
2022-11-05T22:54:24.833Z,30.33
2022-11-05T22:56:53.257Z,30.88
2022-11-05T22:59:20.573Z,29.90
2022-11-05T23:01:48.212Z,30.17
2022-11-05T23:04:17.288Z,29.27
2022-11-05T23:07:03.119Z,30.70
2022-11-05T23:09:51.725Z,32.17
2022-11-05T23:12:24.614Z,35.10
2022-11-05T23:14:53.090Z,28.85
2022-11-05T23:17:39.176Z,28.58
2022-11-05T23:20:26.901Z,28.17
2022-11-05T23:23:12.660Z,27.67
2022-11-05T23:25:39.962Z,29.83
2022-11-05T23:28:10.399Z,34.22
2022-11-05T23:31:00.591Z,32.50
2022-11-05T23:33:29.252Z,30.95
2022-11-05T23:36:15.226Z,42.55
2022-11-05T23:38:42.533Z,39.67
2022-11-05T23:41:28.600Z,32.53
2022-11-05T23:44:14.552Z,34.85
2022-11-05T23:47:00.302Z,31.02
2022-11-05T23:49:27.657Z,33.30
2022-11-05T23:51:54.960Z,33.20
2022-11-05T23:54:22.638Z,36.70
2022-11-05T23:56:49.880Z,31.00
2022-11-05T23:59:17.251Z,31.23
